Alpine, New York
Current Conditions -  °F | °C
As of 8:53 AM on Saturday 01 Nov 2014 (Local Time) from KELM Reporting Station
Light Rain Light Rain  
Wind Chill: 35°   Ceiling: 1500
Heat Index: 41°   Visibility: 10mi
Dew Point: 37°   Wind: 10mph
Humidity: 86%   Direction: 50°NE
Pressure: 29.98"   Gusts: NA
Location:  42.31°N, 76.72°W
Report Text: KELM 011253Z 05009KT 10SM -RA OVC015 05/03 A2998 RMK AO2 RAB46 SLP158 P0000 T00500028 $
Loading
Personal Weather Stations






























Interactive Weather Map
Tropical Storm Tracking
New forecast layout! Learn more

10-Day Weather Forecast

Advertisements
Track Severe Weather on mobile